sensor_id;sensor_type;location;lat;lon;timestamp;P1;durP1;ratioP1;P2;durP2;ratioP2
74674;SDS011;63200;48.810;12.352;2022-09-13T00:00:54;5.90;;;4.72;;
74674;SDS011;63200;48.810;12.352;2022-09-13T00:03:19;8.27;;;4.32;;
74674;SDS011;63200;48.810;12.352;2022-09-13T00:05:45;4.53;;;4.10;;
74674;SDS011;63200;48.810;12.352;2022-09-13T00:08:11;3.63;;;3.33;;
74674;SDS011;63200;48.810;12.352;2022-09-13T00:10:37;2.30;;;2.20;;
74674;SDS011;63200;48.810;12.352;2022-09-13T00:13:05;1.85;;;1.85;;
74674;SDS011;63200;48.810;12.352;2022-09-13T00:15:30;1.88;;;1.88;;
74674;SDS011;63200;48.810;12.352;2022-09-13T00:17:56;4.28;;;2.20;;
74674;SDS011;63200;48.810;12.352;2022-09-13T00:20:24;4.10;;;2.10;;
74674;SDS011;63200;48.810;12.352;2022-09-13T00:22:50;2.90;;;2.60;;
74674;SDS011;63200;48.810;12.352;2022-09-13T00:25:15;3.05;;;2.85;;
74674;SDS011;63200;48.810;12.352;2022-09-13T00:27:41;2.70;;;2.60;;
74674;SDS011;63200;48.810;12.352;2022-09-13T00:30:08;2.60;;;2.45;;
74674;SDS011;63200;48.810;12.352;2022-09-13T00:32:35;2.58;;;2.38;;
74674;SDS011;63200;48.810;12.352;2022-09-13T00:35:01;2.55;;;2.35;;
74674;SDS011;63200;48.810;12.352;2022-09-13T00:37:27;2.50;;;2.30;;
74674;SDS011;63200;48.810;12.352;2022-09-13T00:39:53;5.05;;;2.60;;
74674;SDS011;63200;48.810;12.352;2022-09-13T00:42:20;26.13;;;3.75;;
74674;SDS011;63200;48.810;12.352;2022-09-13T00:44:54;20.08;;;3.58;;
74674;SDS011;63200;48.810;12.352;2022-09-13T00:47:25;20.52;;;3.10;;
74674;SDS011;63200;48.810;12.352;2022-09-13T00:50:40;24.15;;;3.78;;
74674;SDS011;63200;48.810;12.352;2022-09-13T00:52:54;53.20;;;4.78;;
74674;SDS011;63200;48.810;12.352;2022-09-13T00:55:42;16.90;;;4.57;;
74674;SDS011;63200;48.810;12.352;2022-09-13T00:58:24;4.38;;;3.97;;
74674;SDS011;63200;48.810;12.352;2022-09-13T01:01:00;6.97;;;4.43;;
74674;SDS011;63200;48.810;12.352;2022-09-13T01:03:29;4.53;;;3.85;;
74674;SDS011;63200;48.810;12.352;2022-09-13T01:06:07;3.55;;;3.35;;
74674;SDS011;63200;48.810;12.352;2022-09-13T01:08:36;6.90;;;3.58;;
74674;SDS011;63200;48.810;12.352;2022-09-13T01:11:05;5.35;;;3.85;;
74674;SDS011;63200;48.810;12.352;2022-09-13T01:13:36;5.05;;;4.55;;
74674;SDS011;63200;48.810;12.352;2022-09-13T01:16:03;4.47;;;4.07;;
74674;SDS011;63200;48.810;12.352;2022-09-13T01:18:29;4.10;;;3.80;;
74674;SDS011;63200;48.810;12.352;2022-09-13T01:29:24;6.15;;;4.65;;
74674;SDS011;63200;48.810;12.352;2022-09-13T01:32:15;8.75;;;4.03;;
74674;SDS011;63200;48.810;12.352;2022-09-13T01:45:21;4.40;;;3.72;;
74674;SDS011;63200;48.810;12.352;2022-09-13T01:48:09;5.53;;;3.50;;
74674;SDS011;63200;48.810;12.352;2022-09-13T01:50:52;5.03;;;3.58;;
74674;SDS011;63200;48.810;12.352;2022-09-13T01:53:24;3.80;;;3.00;;
74674;SDS011;63200;48.810;12.352;2022-09-13T01:55:58;3.85;;;3.35;;
74674;SDS011;63200;48.810;12.352;2022-09-13T01:58:53;3.80;;;3.35;;
74674;SDS011;63200;48.810;12.352;2022-09-13T02:01:29;4.15;;;2.97;;
74674;SDS011;63200;48.810;12.352;2022-09-13T02:03:59;2.83;;;1.77;;
74674;SDS011;63200;48.810;12.352;2022-09-13T02:06:32;1.80;;;1.80;;
74674;SDS011;63200;48.810;12.352;2022-09-13T02:09:11;1.67;;;1.67;;
74674;SDS011;63200;48.810;12.352;2022-09-13T02:11:40;2.08;;;1.70;;
74674;SDS011;63200;48.810;12.352;2022-09-13T02:14:11;1.88;;;1.88;;
74674;SDS011;63200;48.810;12.352;2022-09-13T02:16:40;3.97;;;2.03;;
74674;SDS011;63200;48.810;12.352;2022-09-13T02:19:13;13.73;;;2.28;;
74674;SDS011;63200;48.810;12.352;2022-09-13T02:21:43;7.38;;;2.20;;
74674;SDS011;63200;48.810;12.352;2022-09-13T02:24:15;4.20;;;2.05;;
74674;SDS011;63200;48.810;12.352;2022-09-13T02:26:44;1.77;;;1.73;;
74674;SDS011;63200;48.810;12.352;2022-09-13T02:29:12;5.05;;;1.95;;
74674;SDS011;63200;48.810;12.352;2022-09-13T02:31:43;1.95;;;1.85;;
74674;SDS011;63200;48.810;12.352;2022-09-13T02:34:20;1.80;;;1.80;;
74674;SDS011;63200;48.810;12.352;2022-09-13T02:36:49;2.22;;;2.10;;
74674;SDS011;63200;48.810;12.352;2022-09-13T02:39:17;4.53;;;2.92;;
74674;SDS011;63200;48.810;12.352;2022-09-13T02:41:57;2.72;;;2.50;;
74674;SDS011;63200;48.810;12.352;2022-09-13T02:52:45;3.50;;;3.30;;
74674;SDS011;63200;48.810;12.352;2022-09-13T03:00:56;4.82;;;3.88;;
74674;SDS011;63200;48.810;12.352;2022-09-13T03:03:21;5.25;;;3.00;;
74674;SDS011;63200;48.810;12.352;2022-09-13T03:05:48;5.60;;;3.20;;
74674;SDS011;63200;48.810;12.352;2022-09-13T03:08:13;3.42;;;3.10;;
74674;SDS011;63200;48.810;12.352;2022-09-13T03:16:04;4.50;;;3.42;;
74674;SDS011;63200;48.810;12.352;2022-09-13T03:21:41;14.45;;;4.32;;
74674;SDS011;63200;48.810;12.352;2022-09-13T03:26:55;6.60;;;4.53;;
74674;SDS011;63200;48.810;12.352;2022-09-13T03:29:31;9.52;;;4.20;;
74674;SDS011;63200;48.810;12.352;2022-09-13T03:35:13;4.15;;;3.40;;
74674;SDS011;63200;48.810;12.352;2022-09-13T03:40:21;5.13;;;3.78;;
74674;SDS011;63200;48.810;12.352;2022-09-13T03:45:25;21.00;;;4.45;;
74674;SDS011;63200;48.810;12.352;2022-09-13T03:47:56;8.52;;;5.10;;
74674;SDS011;63200;48.810;12.352;2022-09-13T03:50:22;8.50;;;5.35;;
74674;SDS011;63200;48.810;12.352;2022-09-13T03:52:51;9.63;;;4.95;;
74674;SDS011;63200;48.810;12.352;2022-09-13T03:55:22;17.90;;;7.18;;
74674;SDS011;63200;48.810;12.352;2022-09-13T03:57:48;10.02;;;5.38;;
74674;SDS011;63200;48.810;12.352;2022-09-13T04:00:13;8.40;;;5.10;;
74674;SDS011;63200;48.810;12.352;2022-09-13T04:02:39;7.50;;;5.13;;
74674;SDS011;63200;48.810;12.352;2022-09-13T04:05:05;7.65;;;5.30;;
74674;SDS011;63200;48.810;12.352;2022-09-13T04:07:30;8.93;;;4.13;;
74674;SDS011;63200;48.810;12.352;2022-09-13T04:09:56;8.82;;;4.90;;
74674;SDS011;63200;48.810;12.352;2022-09-13T04:12:21;5.55;;;4.53;;
74674;SDS011;63200;48.810;12.352;2022-09-13T04:14:47;6.50;;;3.72;;
74674;SDS011;63200;48.810;12.352;2022-09-13T04:17:13;4.65;;;3.45;;
74674;SDS011;63200;48.810;12.352;2022-09-13T04:19:39;7.75;;;3.83;;
74674;SDS011;63200;48.810;12.352;2022-09-13T04:22:04;4.13;;;3.72;;
74674;SDS011;63200;48.810;12.352;2022-09-13T04:24:30;10.95;;;5.40;;
74674;SDS011;63200;48.810;12.352;2022-09-13T04:26:56;5.40;;;3.72;;
74674;SDS011;63200;48.810;12.352;2022-09-13T04:29:22;8.23;;;3.70;;
74674;SDS011;63200;48.810;12.352;2022-09-13T04:31:49;6.05;;;4.13;;
74674;SDS011;63200;48.810;12.352;2022-09-13T04:34:16;9.13;;;5.40;;
74674;SDS011;63200;48.810;12.352;2022-09-13T04:36:42;10.35;;;4.82;;
74674;SDS011;63200;48.810;12.352;2022-09-13T04:39:08;8.75;;;4.90;;
74674;SDS011;63200;48.810;12.352;2022-09-13T04:41:34;7.68;;;4.47;;
74674;SDS011;63200;48.810;12.352;2022-09-13T04:43:59;12.18;;;5.85;;
74674;SDS011;63200;48.810;12.352;2022-09-13T04:46:26;10.77;;;6.00;;
74674;SDS011;63200;48.810;12.352;2022-09-13T04:48:52;7.70;;;4.22;;
74674;SDS011;63200;48.810;12.352;2022-09-13T04:51:18;4.22;;;3.83;;
74674;SDS011;63200;48.810;12.352;2022-09-13T04:53:44;5.90;;;3.88;;
74674;SDS011;63200;48.810;12.352;2022-09-13T04:56:10;5.63;;;3.90;;
74674;SDS011;63200;48.810;12.352;2022-09-13T04:58:38;4.00;;;3.70;;
74674;SDS011;63200;48.810;12.352;2022-09-13T05:01:04;12.85;;;4.10;;
74674;SDS011;63200;48.810;12.352;2022-09-13T05:03:32;8.93;;;4.20;;
74674;SDS011;63200;48.810;12.352;2022-09-13T05:06:11;7.60;;;4.15;;
74674;SDS011;63200;48.810;12.352;2022-09-13T05:08:37;8.38;;;4.60;;
74674;SDS011;63200;48.810;12.352;2022-09-13T05:11:03;5.80;;;4.40;;
74674;SDS011;63200;48.810;12.352;2022-09-13T05:13:29;6.30;;;4.72;;
74674;SDS011;63200;48.810;12.352;2022-09-13T05:15:58;5.30;;;4.07;;
74674;SDS011;63200;48.810;12.352;2022-09-13T05:18:26;4.20;;;3.80;;
74674;SDS011;63200;48.810;12.352;2022-09-13T05:20:55;5.07;;;4.57;;
74674;SDS011;63200;48.810;12.352;2022-09-13T05:23:21;4.65;;;4.20;;
74674;SDS011;63200;48.810;12.352;2022-09-13T05:26:01;7.22;;;4.10;;
74674;SDS011;63200;48.810;12.352;2022-09-13T05:28:29;6.25;;;4.15;;
74674;SDS011;63200;48.810;12.352;2022-09-13T05:30:57;6.07;;;4.00;;
74674;SDS011;63200;48.810;12.352;2022-09-13T05:33:27;8.02;;;3.88;;
74674;SDS011;63200;48.810;12.352;2022-09-13T05:35:54;4.45;;;4.03;;
74674;SDS011;63200;48.810;12.352;2022-09-13T05:38:20;5.75;;;3.95;;
74674;SDS011;63200;48.810;12.352;2022-09-13T05:40:45;6.25;;;4.22;;
74674;SDS011;63200;48.810;12.352;2022-09-13T05:43:11;5.32;;;4.15;;
74674;SDS011;63200;48.810;12.352;2022-09-13T05:45:37;3.95;;;3.67;;
74674;SDS011;63200;48.810;12.352;2022-09-13T05:48:02;5.80;;;3.78;;
74674;SDS011;63200;48.810;12.352;2022-09-13T05:50:27;4.10;;;3.72;;
74674;SDS011;63200;48.810;12.352;2022-09-13T05:52:53;5.53;;;3.63;;
74674;SDS011;63200;48.810;12.352;2022-09-13T05:55:20;3.97;;;3.65;;
74674;SDS011;63200;48.810;12.352;2022-09-13T05:57:46;4.25;;;3.88;;
74674;SDS011;63200;48.810;12.352;2022-09-13T06:00:12;3.63;;;3.38;;
74674;SDS011;63200;48.810;12.352;2022-09-13T06:02:37;11.18;;;4.85;;
74674;SDS011;63200;48.810;12.352;2022-09-13T06:05:03;7.75;;;4.47;;
74674;SDS011;63200;48.810;12.352;2022-09-13T06:07:28;4.45;;;3.90;;
74674;SDS011;63200;48.810;12.352;2022-09-13T06:09:54;4.20;;;3.90;;
74674;SDS011;63200;48.810;12.352;2022-09-13T06:12:19;5.07;;;3.83;;
74674;SDS011;63200;48.810;12.352;2022-09-13T06:14:44;4.65;;;4.25;;
74674;SDS011;63200;48.810;12.352;2022-09-13T06:17:10;4.82;;;4.43;;
74674;SDS011;63200;48.810;12.352;2022-09-13T06:19:35;4.88;;;4.25;;
74674;SDS011;63200;48.810;12.352;2022-09-13T06:22:00;9.10;;;5.30;;
74674;SDS011;63200;48.810;12.352;2022-09-13T06:24:26;6.82;;;5.35;;
74674;SDS011;63200;48.810;12.352;2022-09-13T06:26:51;7.10;;;5.40;;
74674;SDS011;63200;48.810;12.352;2022-09-13T06:29:17;8.73;;;6.07;;
74674;SDS011;63200;48.810;12.352;2022-09-13T06:31:43;5.93;;;5.35;;
74674;SDS011;63200;48.810;12.352;2022-09-13T06:34:09;9.90;;;6.07;;
74674;SDS011;63200;48.810;12.352;2022-09-13T06:36:38;8.65;;;6.63;;
74674;SDS011;63200;48.810;12.352;2022-09-13T06:39:03;7.97;;;6.22;;
74674;SDS011;63200;48.810;12.352;2022-09-13T06:41:30;7.97;;;6.47;;
74674;SDS011;63200;48.810;12.352;2022-09-13T06:43:57;8.07;;;6.65;;
74674;SDS011;63200;48.810;12.352;2022-09-13T06:46:24;8.60;;;6.88;;
74674;SDS011;63200;48.810;12.352;2022-09-13T06:48:51;7.30;;;6.53;;
74674;SDS011;63200;48.810;12.352;2022-09-13T06:51:17;10.43;;;7.40;;
74674;SDS011;63200;48.810;12.352;2022-09-13T06:53:45;11.68;;;7.10;;
74674;SDS011;63200;48.810;12.352;2022-09-13T06:56:16;11.25;;;7.57;;
74674;SDS011;63200;48.810;12.352;2022-09-13T06:58:50;12.13;;;8.38;;
74674;SDS011;63200;48.810;12.352;2022-09-13T07:01:28;10.65;;;8.25;;
74674;SDS011;63200;48.810;12.352;2022-09-13T07:04:06;13.80;;;9.07;;
74674;SDS011;63200;48.810;12.352;2022-09-13T07:06:34;10.35;;;8.55;;
74674;SDS011;63200;48.810;12.352;2022-09-13T07:09:01;13.70;;;9.05;;
74674;SDS011;63200;48.810;12.352;2022-09-13T07:11:31;12.10;;;8.90;;
74674;SDS011;63200;48.810;12.352;2022-09-13T07:13:58;14.30;;;9.13;;
74674;SDS011;63200;48.810;12.352;2022-09-13T07:16:26;12.48;;;8.57;;
74674;SDS011;63200;48.810;12.352;2022-09-13T07:18:54;15.32;;;9.27;;
74674;SDS011;63200;48.810;12.352;2022-09-13T07:21:23;10.18;;;8.27;;
74674;SDS011;63200;48.810;12.352;2022-09-13T07:23:49;9.05;;;7.63;;
74674;SDS011;63200;48.810;12.352;2022-09-13T07:26:15;11.05;;;8.77;;
74674;SDS011;63200;48.810;12.352;2022-09-13T07:28:41;10.20;;;8.85;;
74674;SDS011;63200;48.810;12.352;2022-09-13T07:31:10;9.57;;;8.55;;
74674;SDS011;63200;48.810;12.352;2022-09-13T07:33:36;10.88;;;8.30;;
74674;SDS011;63200;48.810;12.352;2022-09-13T07:36:03;11.23;;;8.55;;
74674;SDS011;63200;48.810;12.352;2022-09-13T07:38:34;10.10;;;7.65;;
74674;SDS011;63200;48.810;12.352;2022-09-13T07:41:01;10.52;;;8.70;;
74674;SDS011;63200;48.810;12.352;2022-09-13T07:43:27;8.75;;;6.90;;
74674;SDS011;63200;48.810;12.352;2022-09-13T07:46:35;8.43;;;7.47;;
74674;SDS011;63200;48.810;12.352;2022-09-13T07:48:43;9.70;;;7.22;;
74674;SDS011;63200;48.810;12.352;2022-09-13T07:53:36;10.32;;;7.25;;
74674;SDS011;63200;48.810;12.352;2022-09-13T07:56:03;9.77;;;7.28;;
74674;SDS011;63200;48.810;12.352;2022-09-13T07:58:37;10.15;;;7.30;;
74674;SDS011;63200;48.810;12.352;2022-09-13T08:01:07;8.80;;;7.43;;
74674;SDS011;63200;48.810;12.352;2022-09-13T08:03:37;7.60;;;6.90;;
74674;SDS011;63200;48.810;12.352;2022-09-13T08:06:03;8.35;;;7.45;;
74674;SDS011;63200;48.810;12.352;2022-09-13T08:08:29;7.07;;;6.32;;
74674;SDS011;63200;48.810;12.352;2022-09-13T08:10:56;7.90;;;6.80;;
74674;SDS011;63200;48.810;12.352;2022-09-13T08:13:22;10.85;;;7.38;;
74674;SDS011;63200;48.810;12.352;2022-09-13T08:15:48;8.02;;;5.80;;
74674;SDS011;63200;48.810;12.352;2022-09-13T08:18:14;7.40;;;5.90;;
74674;SDS011;63200;48.810;12.352;2022-09-13T08:20:40;6.90;;;5.55;;
74674;SDS011;63200;48.810;12.352;2022-09-13T08:23:06;6.70;;;5.85;;
74674;SDS011;63200;48.810;12.352;2022-09-13T08:25:35;11.38;;;5.80;;
74674;SDS011;63200;48.810;12.352;2022-09-13T08:28:04;7.38;;;5.60;;
74674;SDS011;63200;48.810;12.352;2022-09-13T08:30:30;5.90;;;5.15;;
74674;SDS011;63200;48.810;12.352;2022-09-13T08:33:00;6.85;;;6.25;;
74674;SDS011;63200;48.810;12.352;2022-09-13T08:35:27;7.00;;;6.35;;
74674;SDS011;63200;48.810;12.352;2022-09-13T08:37:54;7.60;;;6.22;;
74674;SDS011;63200;48.810;12.352;2022-09-13T08:40:20;6.78;;;6.10;;
74674;SDS011;63200;48.810;12.352;2022-09-13T08:42:50;7.25;;;6.55;;
74674;SDS011;63200;48.810;12.352;2022-09-13T08:45:39;8.13;;;6.05;;
74674;SDS011;63200;48.810;12.352;2022-09-13T08:48:12;7.07;;;6.38;;
74674;SDS011;63200;48.810;12.352;2022-09-13T08:50:40;7.30;;;6.65;;
74674;SDS011;63200;48.810;12.352;2022-09-13T08:53:19;6.82;;;6.22;;
74674;SDS011;63200;48.810;12.352;2022-09-13T09:01:19;8.55;;;5.88;;
74674;SDS011;63200;48.810;12.352;2022-09-13T09:04:14;7.50;;;5.40;;
74674;SDS011;63200;48.810;12.352;2022-09-13T09:06:46;7.18;;;5.40;;
74674;SDS011;63200;48.810;12.352;2022-09-13T09:09:14;6.35;;;5.50;;
74674;SDS011;63200;48.810;12.352;2022-09-13T09:14:22;5.65;;;5.05;;
74674;SDS011;63200;48.810;12.352;2022-09-13T09:17:05;8.07;;;5.25;;
74674;SDS011;63200;48.810;12.352;2022-09-13T09:19:51;7.97;;;4.72;;
74674;SDS011;63200;48.810;12.352;2022-09-13T09:22:24;8.50;;;5.28;;
74674;SDS011;63200;48.810;12.352;2022-09-13T09:24:55;5.75;;;5.05;;
74674;SDS011;63200;48.810;12.352;2022-09-13T09:27:22;5.13;;;4.82;;
74674;SDS011;63200;48.810;12.352;2022-09-13T09:29:48;5.70;;;5.20;;
74674;SDS011;63200;48.810;12.352;2022-09-13T09:32:40;8.68;;;4.95;;
74674;SDS011;63200;48.810;12.352;2022-09-13T09:38:31;5.70;;;4.95;;
74674;SDS011;63200;48.810;12.352;2022-09-13T09:41:00;7.85;;;5.20;;
74674;SDS011;63200;48.810;12.352;2022-09-13T09:43:38;8.48;;;4.95;;
74674;SDS011;63200;48.810;12.352;2022-09-13T09:46:10;5.78;;;5.28;;
74674;SDS011;63200;48.810;12.352;2022-09-13T09:48:43;7.13;;;5.13;;
74674;SDS011;63200;48.810;12.352;2022-09-13T09:51:14;5.22;;;4.72;;
74674;SDS011;63200;48.810;12.352;2022-09-13T09:53:44;7.68;;;4.90;;
74674;SDS011;63200;48.810;12.352;2022-09-13T09:56:25;4.90;;;4.38;;
74674;SDS011;63200;48.810;12.352;2022-09-13T09:58:54;5.28;;;4.78;;
74674;SDS011;63200;48.810;12.352;2022-09-13T10:01:36;5.20;;;4.70;;
74674;SDS011;63200;48.810;12.352;2022-09-13T10:06:41;4.97;;;4.63;;
74674;SDS011;63200;48.810;12.352;2022-09-13T10:11:42;5.28;;;4.78;;
74674;SDS011;63200;48.810;12.352;2022-09-13T10:14:25;5.30;;;4.88;;
74674;SDS011;63200;48.810;12.352;2022-09-13T10:19:40;5.40;;;4.80;;
74674;SDS011;63200;48.810;12.352;2022-09-13T10:22:16;5.07;;;4.68;;
74674;SDS011;63200;48.810;12.352;2022-09-13T10:24:41;6.78;;;4.75;;
74674;SDS011;63200;48.810;12.352;2022-09-13T10:27:18;5.30;;;4.90;;
74674;SDS011;63200;48.810;12.352;2022-09-13T10:29:50;4.57;;;4.15;;
74674;SDS011;63200;48.810;12.352;2022-09-13T10:32:19;4.25;;;3.95;;
74674;SDS011;63200;48.810;12.352;2022-09-13T10:34:45;4.60;;;4.30;;
74674;SDS011;63200;48.810;12.352;2022-09-13T10:37:14;3.78;;;3.58;;
74674;SDS011;63200;48.810;12.352;2022-09-13T10:40:06;5.30;;;3.92;;
74674;SDS011;63200;48.810;12.352;2022-09-13T10:42:55;6.22;;;3.83;;
74674;SDS011;63200;48.810;12.352;2022-09-13T10:45:22;4.00;;;3.60;;
74674;SDS011;63200;48.810;12.352;2022-09-13T10:47:53;3.70;;;3.38;;
74674;SDS011;63200;48.810;12.352;2022-09-13T10:50:29;3.60;;;3.30;;
74674;SDS011;63200;48.810;12.352;2022-09-13T10:52:58;4.07;;;3.70;;
74674;SDS011;63200;48.810;12.352;2022-09-13T10:55:29;5.18;;;4.15;;
74674;SDS011;63200;48.810;12.352;2022-09-13T11:14:31;6.85;;;4.30;;
74674;SDS011;63200;48.810;12.352;2022-09-13T11:22:11;4.28;;;3.90;;
74674;SDS011;63200;48.810;12.352;2022-09-13T11:31:18;5.97;;;4.85;;
74674;SDS011;63200;48.810;12.352;2022-09-13T11:39:00;6.90;;;5.45;;
74674;SDS011;63200;48.810;12.352;2022-09-13T11:44:53;6.18;;;5.25;;
74674;SDS011;63200;48.810;12.352;2022-09-13T11:47:36;7.57;;;5.75;;
74674;SDS011;63200;48.810;12.352;2022-09-13T11:50:27;6.88;;;6.05;;
74674;SDS011;63200;48.810;12.352;2022-09-13T11:55:32;6.45;;;5.85;;
74674;SDS011;63200;48.810;12.352;2022-09-13T11:58:05;5.78;;;5.28;;
74674;SDS011;63200;48.810;12.352;2022-09-13T12:01:01;7.35;;;5.72;;
74674;SDS011;63200;48.810;12.352;2022-09-13T12:06:27;6.63;;;6.03;;
74674;SDS011;63200;48.810;12.352;2022-09-13T12:08:59;8.90;;;6.43;;
74674;SDS011;63200;48.810;12.352;2022-09-13T12:11:30;8.32;;;6.97;;
74674;SDS011;63200;48.810;12.352;2022-09-13T12:14:00;9.90;;;6.75;;
74674;SDS011;63200;48.810;12.352;2022-09-13T12:16:37;8.73;;;7.32;;
74674;SDS011;63200;48.810;12.352;2022-09-13T12:19:12;13.07;;;7.30;;
74674;SDS011;63200;48.810;12.352;2022-09-13T12:21:42;9.73;;;8.32;;
74674;SDS011;63200;48.810;12.352;2022-09-13T12:26:58;8.05;;;6.15;;
74674;SDS011;63200;48.810;12.352;2022-09-13T12:29:35;7.65;;;6.28;;
74674;SDS011;63200;48.810;12.352;2022-09-13T12:32:08;7.00;;;6.40;;
74674;SDS011;63200;48.810;12.352;2022-09-13T12:45:49;7.45;;;5.13;;
74674;SDS011;63200;48.810;12.352;2022-09-13T13:01:59;5.97;;;5.18;;
74674;SDS011;63200;48.810;12.352;2022-09-13T13:04:32;6.53;;;5.57;;
74674;SDS011;63200;48.810;12.352;2022-09-13T13:07:01;8.30;;;5.78;;
74674;SDS011;63200;48.810;12.352;2022-09-13T13:12:10;9.95;;;5.63;;
74674;SDS011;63200;48.810;12.352;2022-09-13T13:14:49;8.25;;;5.63;;
74674;SDS011;63200;48.810;12.352;2022-09-13T13:23:04;7.10;;;5.68;;
74674;SDS011;63200;48.810;12.352;2022-09-13T13:25:54;7.72;;;5.70;;
74674;SDS011;63200;48.810;12.352;2022-09-13T13:31:09;9.07;;;6.43;;
74674;SDS011;63200;48.810;12.352;2022-09-13T13:39:03;7.53;;;6.82;;
74674;SDS011;63200;48.810;12.352;2022-09-13T13:46:49;10.15;;;7.03;;
74674;SDS011;63200;48.810;12.352;2022-09-13T14:02:39;10.75;;;7.28;;
74674;SDS011;63200;48.810;12.352;2022-09-13T14:08:53;12.30;;;7.70;;
74674;SDS011;63200;48.810;12.352;2022-09-13T14:10:58;8.27;;;7.22;;
74674;SDS011;63200;48.810;12.352;2022-09-13T14:16:35;8.98;;;6.82;;
74674;SDS011;63200;48.810;12.352;2022-09-13T14:22:00;8.25;;;7.45;;
74674;SDS011;63200;48.810;12.352;2022-09-13T14:24:28;11.10;;;7.70;;
74674;SDS011;63200;48.810;12.352;2022-09-13T14:26:56;14.25;;;7.32;;
74674;SDS011;63200;48.810;12.352;2022-09-13T14:29:23;9.80;;;6.75;;
74674;SDS011;63200;48.810;12.352;2022-09-13T14:31:53;8.48;;;7.13;;
74674;SDS011;63200;48.810;12.352;2022-09-13T14:34:27;9.02;;;7.10;;
74674;SDS011;63200;48.810;12.352;2022-09-13T14:36:55;10.20;;;6.57;;
74674;SDS011;63200;48.810;12.352;2022-09-13T14:39:25;7.88;;;7.00;;
74674;SDS011;63200;48.810;12.352;2022-09-13T14:42:05;10.98;;;7.22;;
74674;SDS011;63200;48.810;12.352;2022-09-13T14:44:37;12.02;;;7.55;;
74674;SDS011;63200;48.810;12.352;2022-09-13T14:47:16;9.15;;;6.90;;
74674;SDS011;63200;48.810;12.352;2022-09-13T14:49:47;7.50;;;6.68;;
74674;SDS011;63200;48.810;12.352;2022-09-13T14:52:22;8.73;;;6.88;;
74674;SDS011;63200;48.810;12.352;2022-09-13T14:54:53;10.50;;;6.63;;
74674;SDS011;63200;48.810;12.352;2022-09-13T14:57:23;8.77;;;6.85;;
74674;SDS011;63200;48.810;12.352;2022-09-13T14:59:54;8.82;;;6.65;;
74674;SDS011;63200;48.810;12.352;2022-09-13T15:02:24;6.05;;;5.55;;
74674;SDS011;63200;48.810;12.352;2022-09-13T15:04:53;9.85;;;6.05;;
74674;SDS011;63200;48.810;12.352;2022-09-13T15:09:46;9.90;;;7.32;;
74674;SDS011;63200;48.810;12.352;2022-09-13T15:12:23;7.70;;;7.00;;
74674;SDS011;63200;48.810;12.352;2022-09-13T15:17:54;8.80;;;7.03;;
74674;SDS011;63200;48.810;12.352;2022-09-13T15:23:29;9.00;;;8.07;;
74674;SDS011;63200;48.810;12.352;2022-09-13T15:26:00;13.18;;;8.10;;
74674;SDS011;63200;48.810;12.352;2022-09-13T15:31:08;10.57;;;7.65;;
74674;SDS011;63200;48.810;12.352;2022-09-13T15:33:35;13.60;;;7.40;;
74674;SDS011;63200;48.810;12.352;2022-09-13T15:39:12;9.70;;;7.40;;
74674;SDS011;63200;48.810;12.352;2022-09-13T15:41:50;11.88;;;7.88;;
74674;SDS011;63200;48.810;12.352;2022-09-13T15:44:17;12.27;;;9.00;;
74674;SDS011;63200;48.810;12.352;2022-09-13T15:46:46;17.63;;;10.00;;
74674;SDS011;63200;48.810;12.352;2022-09-13T15:49:20;17.20;;;9.90;;
74674;SDS011;63200;48.810;12.352;2022-09-13T15:51:51;11.70;;;8.85;;
74674;SDS011;63200;48.810;12.352;2022-09-13T15:54:19;14.20;;;8.55;;
74674;SDS011;63200;48.810;12.352;2022-09-13T15:56:48;13.30;;;7.75;;
74674;SDS011;63200;48.810;12.352;2022-09-13T15:59:18;11.50;;;7.68;;
74674;SDS011;63200;48.810;12.352;2022-09-13T16:01:46;10.38;;;8.13;;
74674;SDS011;63200;48.810;12.352;2022-09-13T16:04:13;9.90;;;7.70;;
74674;SDS011;63200;48.810;12.352;2022-09-13T16:06:38;10.85;;;8.93;;
74674;SDS011;63200;48.810;12.352;2022-09-13T16:09:17;12.75;;;8.82;;
74674;SDS011;63200;48.810;12.352;2022-09-13T16:11:45;14.50;;;8.15;;
74674;SDS011;63200;48.810;12.352;2022-09-13T16:14:11;11.40;;;9.02;;
74674;SDS011;63200;48.810;12.352;2022-09-13T16:16:37;12.02;;;9.57;;
74674;SDS011;63200;48.810;12.352;2022-09-13T16:19:03;13.52;;;9.02;;
74674;SDS011;63200;48.810;12.352;2022-09-13T16:21:28;15.85;;;8.43;;
74674;SDS011;63200;48.810;12.352;2022-09-13T16:23:54;9.73;;;8.25;;
74674;SDS011;63200;48.810;12.352;2022-09-13T16:26:19;13.23;;;8.80;;
74674;SDS011;63200;48.810;12.352;2022-09-13T16:28:45;11.55;;;8.93;;
74674;SDS011;63200;48.810;12.352;2022-09-13T16:31:10;16.63;;;8.68;;
74674;SDS011;63200;48.810;12.352;2022-09-13T16:33:36;14.77;;;8.00;;
74674;SDS011;63200;48.810;12.352;2022-09-13T16:36:01;11.43;;;8.73;;
74674;SDS011;63200;48.810;12.352;2022-09-13T16:38:27;10.40;;;8.00;;
74674;SDS011;63200;48.810;12.352;2022-09-13T16:40:52;10.25;;;9.13;;
74674;SDS011;63200;48.810;12.352;2022-09-13T16:43:17;11.57;;;8.80;;
74674;SDS011;63200;48.810;12.352;2022-09-13T16:45:43;13.52;;;9.48;;
74674;SDS011;63200;48.810;12.352;2022-09-13T16:48:09;11.43;;;7.70;;
74674;SDS011;63200;48.810;12.352;2022-09-13T16:50:37;10.88;;;7.93;;
74674;SDS011;63200;48.810;12.352;2022-09-13T16:53:04;14.82;;;8.13;;
74674;SDS011;63200;48.810;12.352;2022-09-13T16:55:29;10.60;;;8.65;;
74674;SDS011;63200;48.810;12.352;2022-09-13T16:57:54;15.68;;;8.40;;
74674;SDS011;63200;48.810;12.352;2022-09-13T17:00:20;12.45;;;7.97;;
74674;SDS011;63200;48.810;12.352;2022-09-13T17:02:48;14.93;;;9.20;;
74674;SDS011;63200;48.810;12.352;2022-09-13T17:05:13;20.40;;;10.88;;
74674;SDS011;63200;48.810;12.352;2022-09-13T17:07:39;14.85;;;9.43;;
74674;SDS011;63200;48.810;12.352;2022-09-13T17:10:05;14.55;;;9.95;;
74674;SDS011;63200;48.810;12.352;2022-09-13T17:12:31;19.58;;;9.55;;
74674;SDS011;63200;48.810;12.352;2022-09-13T17:14:58;14.50;;;9.80;;
74674;SDS011;63200;48.810;12.352;2022-09-13T17:17:23;13.13;;;10.27;;
74674;SDS011;63200;48.810;12.352;2022-09-13T17:19:49;13.98;;;10.60;;
74674;SDS011;63200;48.810;12.352;2022-09-13T17:22:16;12.60;;;9.85;;
74674;SDS011;63200;48.810;12.352;2022-09-13T17:24:42;12.57;;;9.18;;
74674;SDS011;63200;48.810;12.352;2022-09-13T17:27:07;13.70;;;8.05;;
74674;SDS011;63200;48.810;12.352;2022-09-13T17:29:34;12.35;;;8.68;;
74674;SDS011;63200;48.810;12.352;2022-09-13T17:32:00;10.38;;;8.32;;
74674;SDS011;63200;48.810;12.352;2022-09-13T17:34:27;9.23;;;8.30;;
74674;SDS011;63200;48.810;12.352;2022-09-13T17:36:53;8.85;;;7.95;;
74674;SDS011;63200;48.810;12.352;2022-09-13T17:39:18;8.95;;;7.40;;
74674;SDS011;63200;48.810;12.352;2022-09-13T17:41:44;10.07;;;7.82;;
74674;SDS011;63200;48.810;12.352;2022-09-13T17:44:10;12.52;;;7.60;;
74674;SDS011;63200;48.810;12.352;2022-09-13T17:46:36;10.55;;;7.60;;
74674;SDS011;63200;48.810;12.352;2022-09-13T17:49:03;16.88;;;8.35;;
74674;SDS011;63200;48.810;12.352;2022-09-13T17:51:29;9.25;;;8.35;;
74674;SDS011;63200;48.810;12.352;2022-09-13T17:53:57;8.60;;;7.63;;
74674;SDS011;63200;48.810;12.352;2022-09-13T17:56:31;10.68;;;8.95;;
74674;SDS011;63200;48.810;12.352;2022-09-13T17:59:03;12.27;;;8.15;;
74674;SDS011;63200;48.810;12.352;2022-09-13T18:01:29;13.43;;;8.18;;
74674;SDS011;63200;48.810;12.352;2022-09-13T18:03:54;8.32;;;7.50;;
74674;SDS011;63200;48.810;12.352;2022-09-13T18:06:20;10.55;;;7.55;;
74674;SDS011;63200;48.810;12.352;2022-09-13T18:08:45;9.50;;;7.30;;